sensor_id;sensor_type;location;lat;lon;timestamp;P1;durP1;ratioP1;P2;durP2;ratioP2
17915;SDS011;9083;49.156;8.982;2024-01-16T00:00:11;6.30;;;4.53;;
17915;SDS011;9083;49.156;8.982;2024-01-16T00:02:37;7.70;;;5.00;;
17915;SDS011;9083;49.156;8.982;2024-01-16T00:05:04;10.10;;;4.30;;
17915;SDS011;9083;49.156;8.982;2024-01-16T00:07:30;7.17;;;4.77;;
17915;SDS011;9083;49.156;8.982;2024-01-16T00:09:59;6.60;;;4.47;;
17915;SDS011;9083;49.156;8.982;2024-01-16T00:12:26;10.53;;;4.30;;
17915;SDS011;9083;49.156;8.982;2024-01-16T00:14:52;10.20;;;4.80;;
17915;SDS011;9083;49.156;8.982;2024-01-16T00:17:20;8.03;;;4.50;;
17915;SDS011;9083;49.156;8.982;2024-01-16T00:19:46;5.67;;;4.03;;
17915;SDS011;9083;49.156;8.982;2024-01-16T00:22:12;6.10;;;4.33;;
17915;SDS011;9083;49.156;8.982;2024-01-16T00:24:38;5.67;;;4.30;;
17915;SDS011;9083;49.156;8.982;2024-01-16T00:27:05;6.03;;;4.40;;
17915;SDS011;9083;49.156;8.982;2024-01-16T00:29:31;7.27;;;4.77;;
17915;SDS011;9083;49.156;8.982;2024-01-16T00:31:58;4.53;;;3.97;;
17915;SDS011;9083;49.156;8.982;2024-01-16T00:34:25;6.80;;;4.70;;
17915;SDS011;9083;49.156;8.982;2024-01-16T00:36:51;7.33;;;5.07;;
17915;SDS011;9083;49.156;8.982;2024-01-16T00:39:18;10.70;;;5.17;;
17915;SDS011;9083;49.156;8.982;2024-01-16T00:41:44;7.40;;;4.87;;
17915;SDS011;9083;49.156;8.982;2024-01-16T00:44:10;5.33;;;4.53;;
17915;SDS011;9083;49.156;8.982;2024-01-16T00:46:37;7.30;;;4.17;;
17915;SDS011;9083;49.156;8.982;2024-01-16T00:49:03;7.90;;;4.13;;
17915;SDS011;9083;49.156;8.982;2024-01-16T00:51:31;6.07;;;4.03;;
17915;SDS011;9083;49.156;8.982;2024-01-16T00:53:57;4.73;;;3.53;;
17915;SDS011;9083;49.156;8.982;2024-01-16T00:56:23;9.63;;;3.83;;
17915;SDS011;9083;49.156;8.982;2024-01-16T00:58:51;6.10;;;4.50;;
17915;SDS011;9083;49.156;8.982;2024-01-16T01:01:18;6.70;;;4.60;;
17915;SDS011;9083;49.156;8.982;2024-01-16T01:03:45;10.80;;;4.90;;
17915;SDS011;9083;49.156;8.982;2024-01-16T01:06:11;5.93;;;4.63;;
17915;SDS011;9083;49.156;8.982;2024-01-16T01:08:39;7.80;;;4.70;;
17915;SDS011;9083;49.156;8.982;2024-01-16T01:11:05;5.27;;;4.60;;
17915;SDS011;9083;49.156;8.982;2024-01-16T01:13:31;6.40;;;4.33;;
17915;SDS011;9083;49.156;8.982;2024-01-16T01:15:58;8.60;;;5.20;;
17915;SDS011;9083;49.156;8.982;2024-01-16T01:18:25;5.27;;;4.40;;
17915;SDS011;9083;49.156;8.982;2024-01-16T01:20:51;7.50;;;4.07;;
17915;SDS011;9083;49.156;8.982;2024-01-16T01:23:18;8.30;;;4.07;;
17915;SDS011;9083;49.156;8.982;2024-01-16T01:25:45;7.20;;;4.27;;
17915;SDS011;9083;49.156;8.982;2024-01-16T01:28:11;8.57;;;4.07;;
17915;SDS011;9083;49.156;8.982;2024-01-16T01:30:38;9.33;;;4.37;;
17915;SDS011;9083;49.156;8.982;2024-01-16T01:33:04;13.20;;;4.77;;
17915;SDS011;9083;49.156;8.982;2024-01-16T01:35:31;6.37;;;4.40;;
17915;SDS011;9083;49.156;8.982;2024-01-16T01:37:57;8.90;;;4.60;;
17915;SDS011;9083;49.156;8.982;2024-01-16T01:40:23;6.77;;;4.60;;
17915;SDS011;9083;49.156;8.982;2024-01-16T01:42:51;7.13;;;4.70;;
17915;SDS011;9083;49.156;8.982;2024-01-16T01:45:17;10.30;;;4.83;;
17915;SDS011;9083;49.156;8.982;2024-01-16T01:47:43;7.53;;;4.60;;
17915;SDS011;9083;49.156;8.982;2024-01-16T01:50:10;8.30;;;5.50;;
17915;SDS011;9083;49.156;8.982;2024-01-16T01:52:36;10.70;;;4.93;;
17915;SDS011;9083;49.156;8.982;2024-01-16T01:55:03;9.93;;;5.17;;
17915;SDS011;9083;49.156;8.982;2024-01-16T01:57:31;10.80;;;4.87;;
17915;SDS011;9083;49.156;8.982;2024-01-16T02:00:00;9.07;;;5.13;;
17915;SDS011;9083;49.156;8.982;2024-01-16T02:02:26;9.20;;;4.47;;
17915;SDS011;9083;49.156;8.982;2024-01-16T02:04:52;9.13;;;5.50;;
17915;SDS011;9083;49.156;8.982;2024-01-16T02:07:19;6.97;;;4.40;;
17915;SDS011;9083;49.156;8.982;2024-01-16T02:09:45;6.93;;;4.33;;
17915;SDS011;9083;49.156;8.982;2024-01-16T02:12:12;10.17;;;4.87;;
17915;SDS011;9083;49.156;8.982;2024-01-16T02:14:38;8.00;;;4.20;;
17915;SDS011;9083;49.156;8.982;2024-01-16T02:17:06;4.93;;;4.00;;
17915;SDS011;9083;49.156;8.982;2024-01-16T02:19:32;8.33;;;4.13;;
17915;SDS011;9083;49.156;8.982;2024-01-16T02:21:59;7.77;;;5.50;;
17915;SDS011;9083;49.156;8.982;2024-01-16T02:24:27;9.37;;;5.77;;
17915;SDS011;9083;49.156;8.982;2024-01-16T02:26:53;6.10;;;4.33;;
17915;SDS011;9083;49.156;8.982;2024-01-16T02:29:19;7.40;;;4.70;;
17915;SDS011;9083;49.156;8.982;2024-01-16T02:31:46;6.47;;;4.27;;
17915;SDS011;9083;49.156;8.982;2024-01-16T02:34:12;6.30;;;4.13;;
17915;SDS011;9083;49.156;8.982;2024-01-16T02:36:38;7.37;;;5.03;;
17915;SDS011;9083;49.156;8.982;2024-01-16T02:39:05;6.63;;;4.57;;
17915;SDS011;9083;49.156;8.982;2024-01-16T02:41:33;7.80;;;5.47;;
17915;SDS011;9083;49.156;8.982;2024-01-16T02:43:59;10.17;;;4.90;;
17915;SDS011;9083;49.156;8.982;2024-01-16T02:46:25;6.00;;;4.63;;
17915;SDS011;9083;49.156;8.982;2024-01-16T02:48:51;12.83;;;5.20;;
17915;SDS011;9083;49.156;8.982;2024-01-16T02:51:18;11.17;;;5.27;;
17915;SDS011;9083;49.156;8.982;2024-01-16T02:53:44;6.43;;;4.37;;
17915;SDS011;9083;49.156;8.982;2024-01-16T02:56:10;9.40;;;4.37;;
17915;SDS011;9083;49.156;8.982;2024-01-16T02:58:38;6.73;;;4.60;;
17915;SDS011;9083;49.156;8.982;2024-01-16T03:01:04;5.23;;;4.30;;
17915;SDS011;9083;49.156;8.982;2024-01-16T03:03:31;5.47;;;4.67;;
17915;SDS011;9083;49.156;8.982;2024-01-16T03:05:57;7.17;;;4.63;;
17915;SDS011;9083;49.156;8.982;2024-01-16T03:08:24;7.37;;;4.33;;
17915;SDS011;9083;49.156;8.982;2024-01-16T03:10:50;9.77;;;4.70;;
17915;SDS011;9083;49.156;8.982;2024-01-16T03:13:17;7.37;;;4.27;;
17915;SDS011;9083;49.156;8.982;2024-01-16T03:15:44;9.73;;;4.70;;
17915;SDS011;9083;49.156;8.982;2024-01-16T03:18:11;5.47;;;3.97;;
17915;SDS011;9083;49.156;8.982;2024-01-16T03:20:37;10.10;;;4.70;;
17915;SDS011;9083;49.156;8.982;2024-01-16T03:23:03;6.23;;;4.80;;
17915;SDS011;9083;49.156;8.982;2024-01-16T03:25:30;11.57;;;5.17;;
17915;SDS011;9083;49.156;8.982;2024-01-16T03:27:56;9.23;;;4.73;;
17915;SDS011;9083;49.156;8.982;2024-01-16T03:30:22;7.53;;;4.43;;
17915;SDS011;9083;49.156;8.982;2024-01-16T03:32:50;9.00;;;3.97;;
17915;SDS011;9083;49.156;8.982;2024-01-16T03:35:16;6.77;;;3.80;;
17915;SDS011;9083;49.156;8.982;2024-01-16T03:37:43;9.40;;;4.07;;
17915;SDS011;9083;49.156;8.982;2024-01-16T03:40:09;6.23;;;4.03;;
17915;SDS011;9083;49.156;8.982;2024-01-16T03:42:37;5.17;;;4.10;;
17915;SDS011;9083;49.156;8.982;2024-01-16T03:45:03;6.43;;;4.00;;
17915;SDS011;9083;49.156;8.982;2024-01-16T03:47:31;8.20;;;5.17;;
17915;SDS011;9083;49.156;8.982;2024-01-16T03:49:59;11.70;;;5.00;;
17915;SDS011;9083;49.156;8.982;2024-01-16T03:52:25;7.23;;;4.97;;
17915;SDS011;9083;49.156;8.982;2024-01-16T03:54:51;6.67;;;4.90;;
17915;SDS011;9083;49.156;8.982;2024-01-16T03:57:18;6.40;;;5.03;;
17915;SDS011;9083;49.156;8.982;2024-01-16T03:59:44;7.43;;;4.67;;
17915;SDS011;9083;49.156;8.982;2024-01-16T04:02:11;7.30;;;4.57;;
17915;SDS011;9083;49.156;8.982;2024-01-16T04:04:37;7.13;;;5.23;;
17915;SDS011;9083;49.156;8.982;2024-01-16T04:07:05;10.63;;;5.37;;
17915;SDS011;9083;49.156;8.982;2024-01-16T04:09:31;11.00;;;4.83;;
17915;SDS011;9083;49.156;8.982;2024-01-16T04:11:57;9.40;;;5.00;;
17915;SDS011;9083;49.156;8.982;2024-01-16T04:14:23;8.13;;;5.30;;
17915;SDS011;9083;49.156;8.982;2024-01-16T04:16:50;7.67;;;5.20;;
17915;SDS011;9083;49.156;8.982;2024-01-16T04:19:16;10.70;;;4.67;;
17915;SDS011;9083;49.156;8.982;2024-01-16T04:21:42;8.67;;;5.40;;
17915;SDS011;9083;49.156;8.982;2024-01-16T04:24:10;8.13;;;4.53;;
17915;SDS011;9083;49.156;8.982;2024-01-16T04:26:37;5.77;;;4.43;;
17915;SDS011;9083;49.156;8.982;2024-01-16T04:29:03;9.00;;;4.23;;
17915;SDS011;9083;49.156;8.982;2024-01-16T04:31:30;6.43;;;4.27;;
17915;SDS011;9083;49.156;8.982;2024-01-16T04:33:56;10.83;;;5.10;;
17915;SDS011;9083;49.156;8.982;2024-01-16T04:36:22;4.87;;;4.23;;
17915;SDS011;9083;49.156;8.982;2024-01-16T04:38:49;12.23;;;4.70;;
17915;SDS011;9083;49.156;8.982;2024-01-16T04:41:18;7.67;;;4.73;;
17915;SDS011;9083;49.156;8.982;2024-01-16T04:43:45;8.13;;;4.43;;
17915;SDS011;9083;49.156;8.982;2024-01-16T04:46:11;8.23;;;4.93;;
17915;SDS011;9083;49.156;8.982;2024-01-16T04:48:37;6.87;;;4.10;;
17915;SDS011;9083;49.156;8.982;2024-01-16T04:51:04;7.43;;;4.50;;
17915;SDS011;9083;49.156;8.982;2024-01-16T04:53:30;7.47;;;4.63;;
17915;SDS011;9083;49.156;8.982;2024-01-16T04:55:57;6.40;;;4.23;;
17915;SDS011;9083;49.156;8.982;2024-01-16T04:58:25;8.97;;;4.73;;
17915;SDS011;9083;49.156;8.982;2024-01-16T05:00:51;4.90;;;4.40;;
17915;SDS011;9083;49.156;8.982;2024-01-16T05:03:18;8.10;;;4.27;;
17915;SDS011;9083;49.156;8.982;2024-01-16T05:05:44;7.90;;;4.47;;
17915;SDS011;9083;49.156;8.982;2024-01-16T05:08:11;8.27;;;4.37;;
17915;SDS011;9083;49.156;8.982;2024-01-16T05:10:37;7.57;;;4.60;;
17915;SDS011;9083;49.156;8.982;2024-01-16T05:13:04;6.30;;;5.20;;
17915;SDS011;9083;49.156;8.982;2024-01-16T05:15:31;6.80;;;4.93;;
17915;SDS011;9083;49.156;8.982;2024-01-16T05:17:58;8.80;;;4.40;;
17915;SDS011;9083;49.156;8.982;2024-01-16T05:20:24;8.73;;;4.57;;
17915;SDS011;9083;49.156;8.982;2024-01-16T05:22:50;6.57;;;4.23;;
17915;SDS011;9083;49.156;8.982;2024-01-16T05:25:16;5.13;;;4.10;;
17915;SDS011;9083;49.156;8.982;2024-01-16T05:27:43;4.50;;;3.93;;
17915;SDS011;9083;49.156;8.982;2024-01-16T05:30:10;7.67;;;4.70;;
17915;SDS011;9083;49.156;8.982;2024-01-16T05:32:37;8.30;;;4.93;;
17915;SDS011;9083;49.156;8.982;2024-01-16T05:35:04;7.50;;;4.67;;
17915;SDS011;9083;49.156;8.982;2024-01-16T05:37:31;6.07;;;3.97;;
17915;SDS011;9083;49.156;8.982;2024-01-16T05:39:58;7.30;;;4.83;;
17915;SDS011;9083;49.156;8.982;2024-01-16T05:42:24;8.13;;;4.53;;
17915;SDS011;9083;49.156;8.982;2024-01-16T05:44:51;6.60;;;4.47;;
17915;SDS011;9083;49.156;8.982;2024-01-16T05:47:18;8.87;;;5.47;;
17915;SDS011;9083;49.156;8.982;2024-01-16T05:49:46;8.63;;;5.00;;
17915;SDS011;9083;49.156;8.982;2024-01-16T05:52:12;11.40;;;5.60;;
17915;SDS011;9083;49.156;8.982;2024-01-16T05:54:39;8.53;;;5.47;;
17915;SDS011;9083;49.156;8.982;2024-01-16T05:57:05;5.30;;;4.73;;
17915;SDS011;9083;49.156;8.982;2024-01-16T05:59:32;5.87;;;4.77;;
17915;SDS011;9083;49.156;8.982;2024-01-16T06:01:58;5.73;;;4.60;;
17915;SDS011;9083;49.156;8.982;2024-01-16T06:04:24;6.67;;;4.30;;
17915;SDS011;9083;49.156;8.982;2024-01-16T06:06:52;9.17;;;4.53;;
17915;SDS011;9083;49.156;8.982;2024-01-16T06:09:18;12.03;;;6.60;;
17915;SDS011;9083;49.156;8.982;2024-01-16T06:11:45;14.23;;;7.50;;
17915;SDS011;9083;49.156;8.982;2024-01-16T06:14:13;9.17;;;6.07;;
17915;SDS011;9083;49.156;8.982;2024-01-16T06:16:44;5.73;;;4.87;;
17915;SDS011;9083;49.156;8.982;2024-01-16T06:19:11;9.83;;;5.23;;
17915;SDS011;9083;49.156;8.982;2024-01-16T06:21:37;7.77;;;4.87;;
17915;SDS011;9083;49.156;8.982;2024-01-16T06:24:06;7.13;;;4.70;;
17915;SDS011;9083;49.156;8.982;2024-01-16T06:26:32;12.30;;;5.23;;
17915;SDS011;9083;49.156;8.982;2024-01-16T06:28:58;10.80;;;4.50;;
17915;SDS011;9083;49.156;8.982;2024-01-16T06:31:25;7.43;;;4.50;;
17915;SDS011;9083;49.156;8.982;2024-01-16T06:33:51;12.33;;;4.97;;
17915;SDS011;9083;49.156;8.982;2024-01-16T06:36:18;12.53;;;5.27;;
17915;SDS011;9083;49.156;8.982;2024-01-16T06:38:44;16.77;;;6.13;;
17915;SDS011;9083;49.156;8.982;2024-01-16T06:41:12;10.13;;;5.50;;
17915;SDS011;9083;49.156;8.982;2024-01-16T06:43:38;9.33;;;4.73;;
17915;SDS011;9083;49.156;8.982;2024-01-16T06:46:05;10.77;;;4.87;;
17915;SDS011;9083;49.156;8.982;2024-01-16T06:48:31;8.57;;;5.60;;
17915;SDS011;9083;49.156;8.982;2024-01-16T06:50:58;8.90;;;5.10;;
17915;SDS011;9083;49.156;8.982;2024-01-16T06:53:26;9.47;;;5.33;;
17915;SDS011;9083;49.156;8.982;2024-01-16T06:55:52;14.67;;;5.97;;
17915;SDS011;9083;49.156;8.982;2024-01-16T06:58:20;11.20;;;5.37;;
17915;SDS011;9083;49.156;8.982;2024-01-16T07:00:46;11.20;;;5.33;;
17915;SDS011;9083;49.156;8.982;2024-01-16T07:03:13;8.93;;;5.60;;
17915;SDS011;9083;49.156;8.982;2024-01-16T07:05:40;9.73;;;6.27;;
17915;SDS011;9083;49.156;8.982;2024-01-16T07:08:07;9.70;;;5.83;;
17915;SDS011;9083;49.156;8.982;2024-01-16T07:10:34;6.97;;;5.57;;
17915;SDS011;9083;49.156;8.982;2024-01-16T07:13:00;9.63;;;5.70;;
17915;SDS011;9083;49.156;8.982;2024-01-16T07:15:28;7.77;;;5.60;;
17915;SDS011;9083;49.156;8.982;2024-01-16T07:17:54;9.27;;;5.13;;
17915;SDS011;9083;49.156;8.982;2024-01-16T07:20:21;9.13;;;4.80;;
17915;SDS011;9083;49.156;8.982;2024-01-16T07:22:47;12.30;;;6.00;;
17915;SDS011;9083;49.156;8.982;2024-01-16T07:25:13;7.07;;;5.53;;
17915;SDS011;9083;49.156;8.982;2024-01-16T07:27:39;7.53;;;4.80;;
17915;SDS011;9083;49.156;8.982;2024-01-16T07:30:07;11.93;;;6.27;;
17915;SDS011;9083;49.156;8.982;2024-01-16T07:32:35;15.83;;;6.13;;
17915;SDS011;9083;49.156;8.982;2024-01-16T07:35:01;7.43;;;5.70;;
17915;SDS011;9083;49.156;8.982;2024-01-16T07:37:28;10.37;;;5.60;;
17915;SDS011;9083;49.156;8.982;2024-01-16T07:39:54;8.80;;;5.13;;
17915;SDS011;9083;49.156;8.982;2024-01-16T07:42:20;8.60;;;5.37;;
17915;SDS011;9083;49.156;8.982;2024-01-16T07:44:47;10.33;;;5.17;;
17915;SDS011;9083;49.156;8.982;2024-01-16T07:47:13;12.67;;;6.40;;
17915;SDS011;9083;49.156;8.982;2024-01-16T07:49:40;12.97;;;6.33;;
17915;SDS011;9083;49.156;8.982;2024-01-16T07:52:07;10.80;;;5.93;;
17915;SDS011;9083;49.156;8.982;2024-01-16T07:54:33;7.57;;;4.43;;
17915;SDS011;9083;49.156;8.982;2024-01-16T07:57:00;8.70;;;5.00;;
17915;SDS011;9083;49.156;8.982;2024-01-16T07:59:26;8.33;;;5.47;;
17915;SDS011;9083;49.156;8.982;2024-01-16T08:01:52;8.00;;;4.60;;
17915;SDS011;9083;49.156;8.982;2024-01-16T08:04:18;12.47;;;5.43;;
17915;SDS011;9083;49.156;8.982;2024-01-16T08:06:46;8.03;;;5.40;;
17915;SDS011;9083;49.156;8.982;2024-01-16T08:09:13;13.37;;;5.57;;
17915;SDS011;9083;49.156;8.982;2024-01-16T08:11:39;10.30;;;5.90;;
17915;SDS011;9083;49.156;8.982;2024-01-16T08:14:05;9.63;;;6.40;;
17915;SDS011;9083;49.156;8.982;2024-01-16T08:16:32;9.83;;;6.20;;
17915;SDS011;9083;49.156;8.982;2024-01-16T08:18:58;10.97;;;6.43;;
17915;SDS011;9083;49.156;8.982;2024-01-16T08:21:24;17.40;;;12.00;;
17915;SDS011;9083;49.156;8.982;2024-01-16T08:23:52;15.80;;;8.83;;
17915;SDS011;9083;49.156;8.982;2024-01-16T08:26:18;14.23;;;6.70;;
17915;SDS011;9083;49.156;8.982;2024-01-16T08:28:45;10.50;;;6.87;;
17915;SDS011;9083;49.156;8.982;2024-01-16T08:31:11;10.73;;;7.07;;
17915;SDS011;9083;49.156;8.982;2024-01-16T08:33:37;10.43;;;7.07;;
17915;SDS011;9083;49.156;8.982;2024-01-16T08:36:04;14.03;;;8.27;;
17915;SDS011;9083;49.156;8.982;2024-01-16T08:38:30;14.23;;;7.47;;
17915;SDS011;9083;49.156;8.982;2024-01-16T08:40:58;17.13;;;8.40;;
17915;SDS011;9083;49.156;8.982;2024-01-16T08:43:24;12.50;;;8.13;;
17915;SDS011;9083;49.156;8.982;2024-01-16T08:45:51;17.77;;;8.13;;
17915;SDS011;9083;49.156;8.982;2024-01-16T08:48:17;16.23;;;8.00;;
17915;SDS011;9083;49.156;8.982;2024-01-16T08:50:43;12.70;;;7.27;;
17915;SDS011;9083;49.156;8.982;2024-01-16T08:53:10;15.00;;;7.37;;
17915;SDS011;9083;49.156;8.982;2024-01-16T08:55:36;13.90;;;6.63;;
17915;SDS011;9083;49.156;8.982;2024-01-16T08:58:04;10.07;;;6.67;;
17915;SDS011;9083;49.156;8.982;2024-01-16T09:00:30;22.70;;;7.60;;
17915;SDS011;9083;49.156;8.982;2024-01-16T09:02:58;13.37;;;7.43;;
17915;SDS011;9083;49.156;8.982;2024-01-16T09:05:24;11.77;;;7.07;;
17915;SDS011;9083;49.156;8.982;2024-01-16T09:07:51;19.00;;;8.33;;
17915;SDS011;9083;49.156;8.982;2024-01-16T09:10:17;17.73;;;8.93;;
17915;SDS011;9083;49.156;8.982;2024-01-16T09:12:43;17.03;;;8.23;;
17915;SDS011;9083;49.156;8.982;2024-01-16T09:15:11;14.57;;;6.43;;
17915;SDS011;9083;49.156;8.982;2024-01-16T09:17:37;10.70;;;6.77;;
17915;SDS011;9083;49.156;8.982;2024-01-16T09:20:05;11.83;;;7.47;;
17915;SDS011;9083;49.156;8.982;2024-01-16T09:22:31;14.93;;;7.53;;
17915;SDS011;9083;49.156;8.982;2024-01-16T09:24:58;22.80;;;9.17;;
17915;SDS011;9083;49.156;8.982;2024-01-16T09:27:24;16.97;;;8.93;;
17915;SDS011;9083;49.156;8.982;2024-01-16T09:29:50;14.13;;;8.20;;
17915;SDS011;9083;49.156;8.982;2024-01-16T09:32:18;8.90;;;6.43;;
17915;SDS011;9083;49.156;8.982;2024-01-16T09:34:44;14.77;;;7.63;;
17915;SDS011;9083;49.156;8.982;2024-01-16T09:37:10;15.40;;;6.60;;
17915;SDS011;9083;49.156;8.982;2024-01-16T09:39:39;13.50;;;6.77;;
17915;SDS011;9083;49.156;8.982;2024-01-16T09:42:06;17.77;;;7.03;;
17915;SDS011;9083;49.156;8.982;2024-01-16T09:44:32;12.10;;;7.10;;
17915;SDS011;9083;49.156;8.982;2024-01-16T09:46:59;12.60;;;7.00;;
17915;SDS011;9083;49.156;8.982;2024-01-16T09:49:30;13.30;;;6.70;;
17915;SDS011;9083;49.156;8.982;2024-01-16T09:51:56;13.33;;;5.77;;
17915;SDS011;9083;49.156;8.982;2024-01-16T09:54:24;13.57;;;6.33;;
17915;SDS011;9083;49.156;8.982;2024-01-16T09:56:52;8.67;;;5.97;;
17915;SDS011;9083;49.156;8.982;2024-01-16T09:59:19;9.53;;;5.97;;
17915;SDS011;9083;49.156;8.982;2024-01-16T10:01:46;10.60;;;6.43;;
17915;SDS011;9083;49.156;8.982;2024-01-16T10:04:14;11.37;;;5.70;;
17915;SDS011;9083;49.156;8.982;2024-01-16T10:06:42;14.33;;;5.80;;
17915;SDS011;9083;49.156;8.982;2024-01-16T10:09:11;8.43;;;5.37;;
17915;SDS011;9083;49.156;8.982;2024-01-16T10:11:38;11.53;;;6.13;;
17915;SDS011;9083;49.156;8.982;2024-01-16T10:14:05;12.70;;;5.97;;
17915;SDS011;9083;49.156;8.982;2024-01-16T10:16:54;9.63;;;5.97;;
17915;SDS011;9083;49.156;8.982;2024-01-16T10:19:21;9.37;;;5.63;;
17915;SDS011;9083;49.156;8.982;2024-01-16T10:21:48;8.73;;;5.47;;
17915;SDS011;9083;49.156;8.982;2024-01-16T10:24:15;13.17;;;6.20;;
17915;SDS011;9083;49.156;8.982;2024-01-16T10:26:41;9.00;;;6.33;;
17915;SDS011;9083;49.156;8.982;2024-01-16T10:29:07;10.93;;;5.10;;
17915;SDS011;9083;49.156;8.982;2024-01-16T10:31:34;8.13;;;5.57;;
17915;SDS011;9083;49.156;8.982;2024-01-16T10:34:00;10.20;;;5.40;;
17915;SDS011;9083;49.156;8.982;2024-01-16T10:36:27;10.57;;;5.73;;
17915;SDS011;9083;49.156;8.982;2024-01-16T10:38:55;15.83;;;6.53;;
17915;SDS011;9083;49.156;8.982;2024-01-16T10:41:28;11.83;;;6.13;;
17915;SDS011;9083;49.156;8.982;2024-01-16T10:44:03;10.10;;;6.03;;
17915;SDS011;9083;49.156;8.982;2024-01-16T10:46:29;9.97;;;5.73;;
17915;SDS011;9083;49.156;8.982;2024-01-16T10:48:59;9.63;;;5.67;;
17915;SDS011;9083;49.156;8.982;2024-01-16T10:51:26;12.37;;;6.53;;
17915;SDS011;9083;49.156;8.982;2024-01-16T10:53:53;10.10;;;5.30;;
17915;SDS011;9083;49.156;8.982;2024-01-16T10:56:25;11.63;;;5.23;;
17915;SDS011;9083;49.156;8.982;2024-01-16T10:58:55;11.20;;;5.93;;
17915;SDS011;9083;49.156;8.982;2024-01-16T11:01:23;9.50;;;5.63;;
17915;SDS011;9083;49.156;8.982;2024-01-16T11:03:50;13.03;;;6.20;;
17915;SDS011;9083;49.156;8.982;2024-01-16T11:06:18;10.40;;;5.23;;
17915;SDS011;9083;49.156;8.982;2024-01-16T11:08:45;11.63;;;5.33;;
17915;SDS011;9083;49.156;8.982;2024-01-16T11:11:12;9.47;;;6.43;;
17915;SDS011;9083;49.156;8.982;2024-01-16T11:13:40;11.90;;;5.40;;
17915;SDS011;9083;49.156;8.982;2024-01-16T11:16:10;9.00;;;4.60;;
17915;SDS011;9083;49.156;8.982;2024-01-16T11:18:36;10.47;;;5.23;;
17915;SDS011;9083;49.156;8.982;2024-01-16T11:21:04;9.07;;;5.30;;
17915;SDS011;9083;49.156;8.982;2024-01-16T11:23:31;9.00;;;5.23;;
17915;SDS011;9083;49.156;8.982;2024-01-16T11:25:57;11.00;;;5.80;;
17915;SDS011;9083;49.156;8.982;2024-01-16T11:28:26;8.07;;;5.97;;
17915;SDS011;9083;49.156;8.982;2024-01-16T11:30:54;11.73;;;5.87;;
17915;SDS011;9083;49.156;8.982;2024-01-16T11:36:06;7.00;;;5.33;;
17915;SDS011;9083;49.156;8.982;2024-01-16T11:38:55;12.13;;;6.87;;
17915;SDS011;9083;49.156;8.982;2024-01-16T11:44:03;6.87;;;4.90;;
17915;SDS011;9083;49.156;8.982;2024-01-16T11:46:34;9.57;;;4.90;;
17915;SDS011;9083;49.156;8.982;2024-01-16T11:49:20;13.47;;;6.20;;
17915;SDS011;9083;49.156;8.982;2024-01-16T11:51:47;12.37;;;6.83;;
17915;SDS011;9083;49.156;8.982;2024-01-16T11:54:13;9.37;;;5.20;;
17915;SDS011;9083;49.156;8.982;2024-01-16T11:59:40;7.53;;;5.57;;
17915;SDS011;9083;49.156;8.982;2024-01-16T12:02:10;7.67;;;5.20;;
17915;SDS011;9083;49.156;8.982;2024-01-16T12:04:38;9.73;;;4.83;;
17915;SDS011;9083;49.156;8.982;2024-01-16T12:07:04;11.57;;;4.93;;
17915;SDS011;9083;49.156;8.982;2024-01-16T12:09:31;15.13;;;7.20;;
17915;SDS011;9083;49.156;8.982;2024-01-16T12:11:57;30.67;;;14.80;;
17915;SDS011;9083;49.156;8.982;2024-01-16T12:14:23;21.03;;;10.83;;
17915;SDS011;9083;49.156;8.982;2024-01-16T12:16:49;9.73;;;5.70;;
17915;SDS011;9083;49.156;8.982;2024-01-16T12:19:17;11.47;;;6.07;;
17915;SDS011;9083;49.156;8.982;2024-01-16T12:21:44;9.17;;;4.90;;
17915;SDS011;9083;49.156;8.982;2024-01-16T12:24:11;9.17;;;4.57;;
17915;SDS011;9083;49.156;8.982;2024-01-16T12:26:37;9.27;;;5.17;;
17915;SDS011;9083;49.156;8.982;2024-01-16T12:29:04;9.10;;;6.03;;
17915;SDS011;9083;49.156;8.982;2024-01-16T12:31:31;13.20;;;5.70;;
17915;SDS011;9083;49.156;8.982;2024-01-16T12:34:04;9.03;;;5.10;;
17915;SDS011;9083;49.156;8.982;2024-01-16T12:36:32;11.53;;;5.27;;
17915;SDS011;9083;49.156;8.982;2024-01-16T12:38:58;9.83;;;4.77;;
17915;SDS011;9083;49.156;8.982;2024-01-16T12:41:24;25.70;;;12.80;;
17915;SDS011;9083;49.156;8.982;2024-01-16T12:43:52;14.20;;;7.60;;
17915;SDS011;9083;49.156;8.982;2024-01-16T12:46:18;10.90;;;7.47;;
17915;SDS011;9083;49.156;8.982;2024-01-16T12:48:44;13.20;;;7.03;;
17915;SDS011;9083;49.156;8.982;2024-01-16T12:51:12;8.47;;;5.17;;
17915;SDS011;9083;49.156;8.982;2024-01-16T12:53:39;8.70;;;5.17;;
17915;SDS011;9083;49.156;8.982;2024-01-16T12:56:06;8.30;;;4.80;;
17915;SDS011;9083;49.156;8.982;2024-01-16T12:58:33;8.17;;;5.37;;
17915;SDS011;9083;49.156;8.982;2024-01-16T13:03:41;8.60;;;4.53;;
17915;SDS011;9083;49.156;8.982;2024-01-16T13:06:07;7.57;;;4.73;;
17915;SDS011;9083;49.156;8.982;2024-01-16T13:08:34;9.47;;;5.70;;
17915;SDS011;9083;49.156;8.982;2024-01-16T13:11:04;10.83;;;5.10;;
17915;SDS011;9083;49.156;8.982;2024-01-16T13:13:31;8.53;;;5.57;;
17915;SDS011;9083;49.156;8.982;2024-01-16T13:15:58;9.17;;;5.33;;
17915;SDS011;9083;49.156;8.982;2024-01-16T13:18:24;10.27;;;5.37;;
17915;SDS011;9083;49.156;8.982;2024-01-16T13:20:51;12.13;;;5.43;;
17915;SDS011;9083;49.156;8.982;2024-01-16T13:23:18;10.23;;;4.43;;
17915;SDS011;9083;49.156;8.982;2024-01-16T13:25:45;7.07;;;4.40;;
17915;SDS011;9083;49.156;8.982;2024-01-16T13:28:14;6.97;;;4.40;;
17915;SDS011;9083;49.156;8.982;2024-01-16T13:30:40;7.03;;;4.37;;
17915;SDS011;9083;49.156;8.982;2024-01-16T13:33:07;6.50;;;4.80;;
17915;SDS011;9083;49.156;8.982;2024-01-16T13:35:34;7.87;;;5.10;;
17915;SDS011;9083;49.156;8.982;2024-01-16T13:38:00;9.20;;;4.50;;
17915;SDS011;9083;49.156;8.982;2024-01-16T13:40:28;12.43;;;5.63;;
17915;SDS011;9083;49.156;8.982;2024-01-16T13:42:55;11.37;;;5.03;;
17915;SDS011;9083;49.156;8.982;2024-01-16T13:45:22;7.53;;;4.83;;
17915;SDS011;9083;49.156;8.982;2024-01-16T13:47:49;17.43;;;5.97;;
17915;SDS011;9083;49.156;8.982;2024-01-16T13:50:15;8.97;;;4.43;;
17915;SDS011;9083;49.156;8.982;2024-01-16T13:52:42;8.57;;;4.43;;
17915;SDS011;9083;49.156;8.982;2024-01-16T13:55:09;6.23;;;4.93;;
17915;SDS011;9083;49.156;8.982;2024-01-16T13:57:36;6.47;;;4.50;;
17915;SDS011;9083;49.156;8.982;2024-01-16T14:00:03;8.40;;;4.60;;
17915;SDS011;9083;49.156;8.982;2024-01-16T14:02:30;9.23;;;4.70;;
17915;SDS011;9083;49.156;8.982;2024-01-16T14:04:57;5.03;;;4.10;;
17915;SDS011;9083;49.156;8.982;2024-01-16T14:07:24;7.87;;;4.37;;
17915;SDS011;9083;49.156;8.982;2024-01-16T14:09:50;7.50;;;4.00;;
17915;SDS011;9083;49.156;8.982;2024-01-16T14:12:16;8.00;;;4.83;;
17915;SDS011;9083;49.156;8.982;2024-01-16T14:14:44;9.53;;;5.33;;
17915;SDS011;9083;49.156;8.982;2024-01-16T14:17:10;10.60;;;5.77;;
17915;SDS011;9083;49.156;8.982;2024-01-16T14:19:38;8.77;;;5.60;;
17915;SDS011;9083;49.156;8.982;2024-01-16T14:22:05;12.67;;;6.80;;
17915;SDS011;9083;49.156;8.982;2024-01-16T14:24:31;8.20;;;5.37;;
17915;SDS011;9083;49.156;8.982;2024-01-16T14:26:57;10.90;;;5.97;;
17915;SDS011;9083;49.156;8.982;2024-01-16T14:29:24;13.23;;;5.67;;
17915;SDS011;9083;49.156;8.982;2024-01-16T14:31:51;10.47;;;6.10;;
17915;SDS011;9083;49.156;8.982;2024-01-16T14:34:20;11.20;;;5.70;;
17915;SDS011;9083;49.156;8.982;2024-01-16T14:36:49;10.03;;;6.67;;
17915;SDS011;9083;49.156;8.982;2024-01-16T14:39:16;10.87;;;5.63;;
17915;SDS011;9083;49.156;8.982;2024-01-16T14:41:49;11.40;;;5.97;;
17915;SDS011;9083;49.156;8.982;2024-01-16T14:44:15;10.00;;;5.43;;
17915;SDS011;9083;49.156;8.982;2024-01-16T14:46:42;11.50;;;5.77;;
17915;SDS011;9083;49.156;8.982;2024-01-16T14:49:09;13.80;;;5.90;;
17915;SDS011;9083;49.156;8.982;2024-01-16T14:51:35;14.67;;;5.83;;
17915;SDS011;9083;49.156;8.982;2024-01-16T14:54:04;17.00;;;6.27;;
17915;SDS011;9083;49.156;8.982;2024-01-16T14:56:30;12.47;;;6.17;;
17915;SDS011;9083;49.156;8.982;2024-01-16T14:58:56;11.87;;;6.57;;
17915;SDS011;9083;49.156;8.982;2024-01-16T15:01:23;15.43;;;6.60;;
17915;SDS011;9083;49.156;8.982;2024-01-16T15:03:49;13.70;;;6.17;;